createdAt,value
2019-04-22T00:00:57.267Z,4.40
2019-04-22T00:03:39.129Z,4.67
2019-04-22T00:06:25.233Z,3.90
2019-04-22T00:09:07.065Z,4.13
2019-04-22T00:11:35.506Z,4.33
2019-04-22T00:14:05.598Z,4.03
2019-04-22T00:16:50.327Z,4.00
2019-04-22T00:21:55.147Z,3.53
2019-04-22T00:24:24.331Z,4.23
2019-04-22T00:26:59.608Z,3.40
2019-04-22T00:32:28.324Z,3.40
2019-04-22T00:34:57.256Z,3.90
2019-04-22T00:37:37.926Z,4.00
2019-04-22T00:40:09.356Z,3.70
2019-04-22T00:42:42.749Z,3.27
2019-04-22T00:45:13.084Z,3.83
2019-04-22T00:47:44.440Z,3.17
2019-04-22T00:52:57.649Z,3.10
2019-04-22T00:55:31.329Z,3.33
2019-04-22T00:58:06.172Z,3.60
2019-04-22T01:00:39.282Z,3.77
2019-04-22T01:03:20.699Z,3.47
2019-04-22T01:05:46.950Z,3.67
2019-04-22T01:08:23.435Z,3.13
2019-04-22T01:10:58.573Z,3.53
2019-04-22T01:13:24.942Z,3.70
2019-04-22T01:16:05.547Z,3.57
2019-04-22T01:18:32.622Z,3.40
2019-04-22T01:23:34.601Z,3.33
2019-04-22T01:26:09.925Z,3.27
2019-04-22T01:28:43.454Z,3.53
2019-04-22T01:31:08.267Z,3.27
2019-04-22T01:33:44.174Z,3.77
2019-04-22T01:36:30.113Z,3.50
2019-04-22T01:39:14.036Z,3.47
2019-04-22T01:41:51.722Z,3.07
2019-04-22T01:44:23.668Z,3.17
2019-04-22T01:46:54.240Z,3.83
2019-04-22T01:49:30.105Z,3.73
2019-04-22T01:52:05.102Z,3.43
2019-04-22T01:54:40.297Z,3.60
2019-04-22T01:57:04.859Z,3.07
2019-04-22T01:59:32.942Z,3.87
2019-04-22T02:02:17.591Z,3.63
2019-04-22T02:05:10.178Z,3.63
2019-04-22T02:07:23.455Z,3.97
2019-04-22T02:09:56.044Z,3.23
2019-04-22T02:12:34.322Z,3.43
2019-04-22T02:15:09.195Z,3.70
2019-04-22T02:17:37.232Z,3.50
2019-04-22T02:20:29.705Z,4.10
2019-04-22T02:23:43.112Z,3.73
2019-04-22T02:26:18.051Z,3.47
2019-04-22T02:28:42.549Z,3.60
2019-04-22T02:31:27.013Z,4.00
2019-04-22T02:44:08.381Z,3.43
2019-04-22T02:49:22.658Z,3.30
2019-04-22T02:54:45.069Z,3.77
2019-04-22T02:59:22.396Z,3.70
2019-04-22T03:01:53.203Z,3.77
2019-04-22T03:04:22.781Z,3.67
2019-04-22T03:06:55.606Z,3.43
2019-04-22T03:12:24.595Z,3.43
2019-04-22T03:14:51.600Z,3.87
2019-04-22T03:17:25.504Z,3.40
2019-04-22T03:22:20.901Z,3.50
2019-04-22T03:33:08.306Z,3.80
2019-04-22T03:45:28.141Z,4.40
2019-04-22T03:48:02.791Z,3.90
2019-04-22T03:55:45.075Z,4.23
2019-04-22T03:58:10.904Z,4.10
2019-04-22T04:01:03.129Z,4.40
2019-04-22T04:03:28.997Z,4.20
2019-04-22T04:08:32.755Z,4.70
2019-04-22T04:11:07.049Z,4.23
2019-04-22T04:13:58.064Z,4.30
2019-04-22T04:16:21.234Z,4.53
2019-04-22T04:18:56.094Z,4.23
2019-04-22T04:24:19.774Z,4.73
2019-04-22T04:29:30.399Z,5.23
2019-04-22T04:31:51.147Z,4.87
2019-04-22T04:34:41.125Z,4.73
2019-04-22T04:36:57.789Z,4.77
2019-04-22T04:39:28.810Z,4.23
2019-04-22T04:44:48.017Z,3.97
2019-04-22T04:47:05.030Z,4.27
2019-04-22T04:49:54.542Z,4.83
2019-04-22T04:52:16.332Z,4.23
2019-04-22T04:54:48.244Z,4.63
2019-04-22T04:57:23.520Z,4.23
2019-04-22T05:02:30.897Z,4.80
2019-04-22T05:10:13.792Z,4.60
2019-04-22T05:12:55.669Z,4.47
2019-04-22T05:15:11.255Z,3.70
2019-04-22T05:17:43.646Z,4.43
2019-04-22T05:20:21.929Z,4.57
2019-04-22T05:22:44.512Z,4.67
2019-04-22T05:27:50.971Z,5.30
2019-04-22T05:30:26.798Z,3.90
2019-04-22T05:33:01.879Z,4.43
2019-04-22T05:35:39.506Z,4.83
2019-04-22T05:38:11.185Z,4.20
2019-04-22T05:40:34.672Z,4.53
2019-04-22T05:43:16.249Z,4.70
2019-04-22T05:45:51.348Z,4.77
2019-04-22T05:48:28.675Z,4.90
2019-04-22T05:50:56.421Z,5.23
2019-04-22T05:53:32.401Z,5.07
2019-04-22T05:56:12.292Z,4.60
2019-04-22T05:58:45.307Z,4.87
2019-04-22T06:03:56.487Z,4.50
2019-04-22T06:06:18.232Z,4.70
2019-04-22T06:08:57.698Z,4.73
2019-04-22T06:11:29.613Z,4.87
2019-04-22T06:14:02.199Z,4.80
2019-04-22T06:16:47.325Z,5.17
2019-04-22T06:19:13.752Z,5.00
2019-04-22T06:22:09.645Z,4.90
2019-04-22T06:24:23.561Z,4.90
2019-04-22T06:27:01.643Z,5.03
2019-04-22T06:29:26.652Z,5.40
2019-04-22T06:32:23.724Z,6.23
2019-04-22T06:34:35.935Z,5.63
2019-04-22T06:37:16.081Z,5.57
2019-04-22T06:42:21.706Z,4.87
2019-04-22T06:44:54.599Z,4.63
2019-04-22T06:47:42.652Z,5.17
2019-04-22T06:49:59.147Z,5.27
2019-04-22T06:52:30.225Z,4.13
2019-04-22T06:55:13.284Z,6.50
2019-04-22T06:57:41.162Z,5.57
2019-04-22T07:00:10.698Z,6.23
2019-04-22T07:05:25.009Z,5.00
2019-04-22T07:07:56.621Z,5.08
2019-04-22T07:13:01.400Z,5.10
2019-04-22T07:15:48.010Z,4.92
2019-04-22T07:18:11.436Z,5.05
2019-04-22T07:20:44.177Z,5.42
2019-04-22T07:23:22.593Z,5.90
2019-04-22T07:25:49.290Z,5.22
2019-04-22T07:28:20.227Z,4.90
2019-04-22T07:31:01.379Z,5.30
2019-04-22T07:33:34.233Z,4.97
2019-04-22T07:38:31.085Z,4.60
2019-04-22T07:41:27.017Z,6.10
2019-04-22T07:44:01.398Z,5.10
2019-04-22T07:46:18.731Z,4.45
2019-04-22T07:48:51.963Z,5.33
2019-04-22T07:51:28.136Z,4.42
2019-04-22T07:54:01.707Z,4.95
2019-04-22T07:56:30.548Z,4.30
2019-04-22T07:59:09.515Z,4.80
2019-04-22T08:01:39.803Z,4.42
2019-04-22T08:04:24.279Z,4.72
2019-04-22T08:06:52.785Z,4.37
2019-04-22T08:11:53.813Z,3.70
2019-04-22T08:14:30.109Z,4.60
2019-04-22T08:17:14.465Z,4.08
2019-04-22T08:19:35.456Z,4.53
2019-04-22T08:22:12.198Z,4.00
2019-04-22T08:27:18.944Z,3.80
2019-04-22T08:29:58.630Z,3.98
2019-04-22T08:32:29.909Z,3.75
2019-04-22T08:35:00.630Z,4.20
2019-04-22T08:40:13.688Z,4.30
2019-04-22T08:47:53.046Z,3.92
2019-04-22T08:50:20.382Z,4.17
2019-04-22T08:52:58.744Z,3.45
2019-04-22T08:55:32.859Z,3.90
2019-04-22T09:00:44.193Z,3.58
2019-04-22T09:03:11.156Z,4.95
2019-04-22T09:08:19.337Z,4.28
2019-04-22T09:10:54.137Z,3.37
2019-04-22T09:13:30.082Z,3.85
2019-04-22T09:15:59.043Z,3.98
2019-04-22T09:18:34.915Z,4.08
2019-04-22T09:21:15.472Z,3.58
2019-04-22T09:23:44.156Z,3.17
2019-04-22T09:26:20.540Z,2.40
2019-04-22T09:28:54.541Z,2.83
2019-04-22T09:31:19.624Z,2.45
2019-04-22T09:33:53.711Z,2.40
2019-04-22T09:36:33.976Z,3.27
2019-04-22T09:39:00.836Z,2.30
2019-04-22T09:41:40.100Z,1.90
2019-04-22T09:44:09.228Z,1.67
2019-04-22T09:49:22.541Z,2.33
2019-04-22T09:51:55.445Z,2.22
2019-04-22T09:54:31.902Z,1.92
2019-04-22T09:56:56.531Z,2.05
2019-04-22T09:59:32.620Z,2.37
2019-04-22T10:02:19.861Z,2.37
2019-04-22T10:04:39.804Z,2.15
2019-04-22T10:07:15.266Z,1.92
2019-04-22T10:12:30.498Z,2.60
2019-04-22T10:17:25.165Z,2.10
2019-04-22T10:20:02.491Z,1.92
2019-04-22T10:22:39.480Z,2.62
2019-04-22T10:25:10.453Z,2.08
2019-04-22T10:27:39.798Z,1.80
2019-04-22T10:30:39.228Z,2.02
2019-04-22T10:32:47.921Z,2.15
2019-04-22T10:35:12.294Z,1.98
2019-04-22T10:37:40.559Z,2.17
2019-04-22T10:40:19.584Z,1.75
2019-04-22T10:42:51.594Z,1.57
2019-04-22T10:45:23.981Z,1.80
2019-04-22T10:47:56.050Z,1.87
2019-04-22T10:50:43.014Z,2.05
2019-04-22T10:53:17.535Z,1.65
2019-04-22T10:55:51.451Z,1.92
2019-04-22T10:58:24.687Z,1.80
2019-04-22T11:00:58.114Z,2.08
2019-04-22T11:03:31.118Z,1.98
2019-04-22T11:06:03.421Z,2.62
2019-04-22T11:08:45.418Z,1.82
2019-04-22T11:11:21.350Z,1.75
2019-04-22T11:13:43.931Z,1.65
2019-04-22T11:16:17.313Z,1.70
2019-04-22T11:18:49.612Z,1.50
2019-04-22T11:21:21.484Z,1.85
2019-04-22T11:23:54.558Z,1.80
2019-04-22T11:26:28.092Z,1.92
2019-04-22T11:29:01.472Z,2.05
2019-04-22T11:31:34.466Z,1.80
2019-04-22T11:34:06.509Z,1.67
2019-04-22T11:36:38.902Z,1.90
2019-04-22T11:39:13.205Z,2.25
2019-04-22T11:41:44.658Z,1.80
2019-04-22T11:44:17.179Z,2.02
2019-04-22T11:46:49.749Z,1.85
2019-04-22T11:49:21.906Z,2.02
2019-04-22T11:51:54.213Z,1.70
2019-04-22T11:54:26.155Z,2.00
2019-04-22T11:56:59.010Z,1.80
2019-04-22T11:59:31.097Z,1.75
2019-04-22T12:02:02.996Z,1.98
2019-04-22T12:04:35.889Z,1.60
2019-04-22T12:07:08.813Z,1.50
2019-04-22T12:09:41.885Z,1.65
2019-04-22T12:12:14.088Z,2.22
2019-04-22T12:14:45.958Z,1.90
2019-04-22T12:17:18.090Z,2.35
2019-04-22T12:19:50.381Z,2.12
2019-04-22T12:22:23.010Z,1.82
2019-04-22T12:24:56.558Z,2.10
2019-04-22T12:27:30.012Z,1.90
2019-04-22T12:30:02.992Z,2.20
2019-04-22T12:32:35.789Z,2.08
2019-04-22T12:35:09.266Z,2.12
2019-04-22T12:37:49.950Z,2.42
2019-04-22T12:40:29.368Z,2.25
2019-04-22T12:42:49.177Z,2.42
2019-04-22T12:45:22.404Z,2.20
2019-04-22T12:47:55.866Z,2.80
2019-04-22T12:50:32.921Z,2.50
2019-04-22T12:53:07.238Z,2.47
2019-04-22T12:55:35.667Z,2.60
2019-04-22T12:58:07.664Z,2.62
2019-04-22T13:00:40.415Z,2.62
2019-04-22T13:03:12.211Z,2.60
2019-04-22T13:05:45.227Z,2.10
2019-04-22T13:08:18.030Z,2.15
2019-04-22T13:10:58.422Z,2.90
2019-04-22T13:13:24.991Z,2.55
2019-04-22T13:15:57.146Z,2.70
2019-04-22T13:18:37.315Z,2.98
2019-04-22T13:21:04.220Z,2.47
2019-04-22T13:23:36.952Z,2.40
2019-04-22T13:26:08.858Z,2.45
2019-04-22T13:28:40.943Z,2.80
2019-04-22T13:31:13.883Z,2.30
2019-04-22T13:33:46.695Z,2.45
2019-04-22T13:36:22.731Z,2.30
2019-04-22T13:38:53.268Z,2.72
2019-04-22T13:41:35.709Z,2.67
2019-04-22T13:43:59.862Z,2.67
2019-04-22T13:46:33.691Z,2.22
2019-04-22T13:49:31.643Z,2.70
2019-04-22T13:52:18.842Z,2.08
2019-04-22T13:57:03.377Z,2.25
2019-04-22T13:59:28.721Z,2.37
2019-04-22T14:02:14.653Z,2.30
2019-04-22T14:04:48.357Z,2.85
2019-04-22T14:07:20.890Z,2.58
2019-04-22T14:09:54.013Z,2.50
2019-04-22T14:12:26.690Z,2.23
2019-04-22T14:15:00.150Z,2.37
2019-04-22T14:17:32.117Z,2.50
2019-04-22T14:20:04.805Z,2.60
2019-04-22T14:22:36.841Z,2.60
2019-04-22T14:25:10.378Z,2.47
2019-04-22T14:27:52.437Z,2.50
2019-04-22T14:30:16.782Z,2.13
2019-04-22T14:32:48.585Z,3.03
2019-04-22T14:35:20.954Z,2.60
2019-04-22T14:37:54.410Z,2.67
2019-04-22T14:40:28.131Z,2.23
2019-04-22T14:44:47.166Z,2.47
2019-04-22T14:46:12.244Z,1.97
2019-04-22T14:48:36.930Z,2.03
2019-04-22T14:51:05.984Z,2.60
2019-04-22T14:53:40.466Z,1.80
2019-04-22T14:55:48.626Z,2.00
2019-04-22T14:58:20.468Z,2.10
2019-04-22T15:00:54.869Z,2.10
2019-04-22T15:03:26.117Z,2.40
2019-04-22T15:05:58.040Z,2.03
2019-04-22T15:08:31.089Z,2.57
2019-04-22T15:11:05.896Z,2.50
2019-04-22T15:13:36.840Z,1.70
2019-04-22T15:16:38.389Z,2.67
2019-04-22T15:19:16.042Z,2.50
2019-04-22T15:21:47.859Z,2.20
2019-04-22T15:24:24.880Z,3.20
2019-04-22T15:26:58.534Z,2.53
2019-04-22T15:29:31.606Z,2.37
2019-04-22T15:32:05.195Z,2.20
2019-04-22T15:34:37.071Z,2.80
2019-04-22T15:37:08.787Z,2.80
2019-04-22T15:39:41.531Z,2.20
2019-04-22T15:42:20.801Z,2.03
2019-04-22T15:44:48.057Z,3.07
2019-04-22T15:47:20.684Z,2.20
2019-04-22T15:49:53.890Z,3.50
2019-04-22T15:52:32.086Z,2.23
2019-04-22T15:55:00.764Z,2.27
2019-04-22T15:57:35.751Z,2.40
2019-04-22T16:00:22.847Z,2.33
2019-04-22T16:02:41.443Z,2.30
2019-04-22T16:05:14.782Z,2.33
2019-04-22T16:07:46.714Z,2.60
2019-04-22T16:10:19.803Z,2.60
2019-04-22T16:12:57.529Z,2.03
2019-04-22T16:15:26.537Z,2.13
2019-04-22T16:18:01.605Z,2.60
2019-04-22T16:20:32.269Z,2.33
2019-04-22T16:23:11.000Z,2.40
2019-04-22T16:26:05.346Z,2.60
2019-04-22T16:28:37.646Z,2.60
2019-04-22T16:31:11.157Z,2.80
2019-04-22T16:33:45.708Z,2.60
2019-04-22T16:36:16.920Z,2.37
2019-04-22T16:38:49.069Z,3.27
2019-04-22T16:41:21.224Z,3.30
2019-04-22T16:43:54.274Z,2.70
2019-04-22T16:46:27.664Z,3.33
2019-04-22T16:48:59.612Z,3.27
2019-04-22T16:51:32.037Z,3.73
2019-04-22T16:54:06.472Z,2.83
2019-04-22T16:56:39.703Z,3.30
2019-04-22T16:59:12.881Z,4.00
2019-04-22T17:02:06.298Z,3.33
2019-04-22T17:05:07.478Z,3.97
2019-04-22T17:07:40.263Z,3.83
2019-04-22T17:10:13.686Z,5.10
2019-04-22T17:12:53.943Z,4.00
2019-04-22T17:15:20.738Z,4.20
2019-04-22T17:17:53.187Z,4.30
2019-04-22T17:20:25.155Z,3.30
2019-04-22T17:22:57.743Z,4.70
2019-04-22T17:25:30.176Z,4.63
2019-04-22T17:28:03.552Z,4.63
2019-04-22T17:30:35.976Z,4.23
2019-04-22T17:33:08.440Z,5.73
2019-04-22T17:35:43.208Z,4.93
2019-04-22T17:38:26.303Z,4.70
2019-04-22T17:41:02.519Z,5.20
2019-04-22T17:44:00.316Z,5.10
2019-04-22T17:46:23.394Z,5.47
2019-04-22T17:49:23.783Z,5.80
2019-04-22T17:52:10.802Z,6.10
2019-04-22T17:54:48.197Z,6.00
2019-04-22T17:57:22.506Z,6.83
2019-04-22T17:59:50.520Z,6.43
2019-04-22T18:02:25.163Z,6.23
2019-04-22T18:04:49.647Z,6.90
2019-04-22T18:07:49.065Z,6.50
2019-04-22T18:12:50.098Z,6.63
2019-04-22T18:15:35.266Z,6.87
2019-04-22T18:17:54.186Z,6.70
2019-04-22T18:20:27.203Z,7.07
2019-04-22T18:22:51.405Z,6.90
2019-04-22T18:25:22.416Z,6.87
2019-04-22T18:28:15.065Z,5.97
2019-04-22T18:30:33.472Z,7.07
2019-04-22T18:33:15.424Z,6.27
2019-04-22T18:35:44.322Z,6.50
2019-04-22T18:38:33.355Z,6.37
2019-04-22T18:40:56.085Z,7.87
2019-04-22T18:43:27.185Z,6.80
2019-04-22T18:46:11.184Z,7.30
2019-04-22T18:48:33.258Z,5.47
2019-04-22T18:51:18.766Z,7.20
2019-04-22T18:54:01.978Z,7.13
2019-04-22T18:56:37.748Z,6.57
2019-04-22T18:58:59.384Z,6.53
2019-04-22T19:01:25.677Z,6.60
2019-04-22T19:04:06.820Z,7.00
2019-04-22T19:06:56.201Z,7.17
2019-04-22T19:09:38.246Z,6.70
2019-04-22T19:12:19.648Z,6.40
2019-04-22T19:14:45.247Z,6.63
2019-04-22T19:17:21.535Z,6.70
2019-04-22T19:19:54.334Z,6.40
2019-04-22T19:22:25.180Z,7.03
2019-04-22T19:24:51.018Z,6.90
2019-04-22T19:27:26.678Z,6.57
2019-04-22T19:30:07.052Z,6.33
2019-04-22T19:32:40.441Z,6.03
2019-04-22T19:35:03.742Z,6.50
2019-04-22T19:37:37.849Z,6.73
2019-04-22T19:40:24.100Z,5.77
2019-04-22T19:42:57.484Z,6.63
2019-04-22T19:45:23.969Z,6.13
2019-04-22T19:48:03.663Z,6.03
2019-04-22T19:50:36.698Z,6.23
2019-04-22T19:53:10.686Z,6.13
2019-04-22T19:55:45.083Z,6.27
2019-04-22T19:58:17.599Z,6.33
2019-04-22T20:01:15.102Z,5.67
2019-04-22T20:04:16.493Z,7.40
2019-04-22T20:07:00.655Z,5.80
2019-04-22T20:09:46.818Z,6.20
2019-04-22T20:12:11.831Z,6.17
2019-04-22T20:14:45.974Z,5.90
2019-04-22T20:17:24.140Z,5.97
2019-04-22T20:19:56.115Z,5.70
2019-04-22T20:22:28.330Z,6.10
2019-04-22T20:24:52.688Z,5.77
2019-04-22T20:27:36.427Z,5.50
2019-04-22T20:30:14.053Z,6.23
2019-04-22T20:32:41.801Z,6.27
2019-04-22T20:35:24.490Z,5.57
2019-04-22T20:37:50.985Z,5.57
2019-04-22T20:40:25.305Z,5.30
2019-04-22T20:43:01.460Z,5.93
2019-04-22T20:45:36.245Z,6.07
2019-04-22T20:47:57.355Z,5.10
2019-04-22T20:50:41.829Z,5.30
2019-04-22T20:53:18.661Z,4.60
2019-04-22T20:55:48.364Z,5.50
2019-04-22T20:58:24.465Z,5.27
2019-04-22T21:00:46.518Z,5.53
2019-04-22T21:03:23.473Z,5.40
2019-04-22T21:05:54.103Z,5.37
2019-04-22T21:08:38.931Z,5.17
2019-04-22T21:11:04.125Z,5.63
2019-04-22T21:13:41.092Z,5.13
2019-04-22T21:16:21.682Z,5.17
2019-04-22T21:18:44.449Z,5.43
2019-04-22T21:21:29.663Z,6.10
2019-04-22T21:23:48.866Z,5.40
2019-04-22T21:26:29.479Z,5.10
2019-04-22T21:29:03.288Z,5.73
2019-04-22T21:31:41.241Z,6.07
2019-04-22T21:34:10.043Z,5.60
2019-04-22T21:36:48.100Z,5.80
2019-04-22T21:39:17.519Z,5.80
2019-04-22T21:41:52.810Z,5.33
2019-04-22T21:44:25.922Z,5.33
2019-04-22T21:47:09.042Z,4.57
2019-04-22T21:49:35.526Z,5.10
2019-04-22T21:52:05.400Z,5.77
2019-04-22T21:54:46.728Z,6.00
2019-04-22T21:57:25.441Z,5.77
2019-04-22T21:59:57.728Z,5.43
2019-04-22T22:02:31.413Z,5.50
2019-04-22T22:04:58.334Z,6.33
2019-04-22T22:07:22.026Z,5.70
2019-04-22T22:10:12.264Z,5.13
2019-04-22T22:12:52.492Z,6.00
2019-04-22T22:15:22.756Z,6.13
2019-04-22T22:17:51.373Z,5.93
2019-04-22T22:20:22.761Z,5.83
2019-04-22T22:23:12.548Z,6.20
2019-04-22T22:25:34.282Z,5.73
2019-04-22T22:28:30.043Z,5.60
2019-04-22T22:31:04.986Z,6.00
2019-04-22T22:33:18.778Z,5.20
2019-04-22T22:35:45.627Z,6.60
2019-04-22T22:38:26.274Z,5.90
2019-04-22T22:40:40.029Z,5.93
2019-04-22T22:43:18.751Z,7.07
2019-04-22T22:45:52.897Z,6.30
2019-04-22T22:48:39.786Z,6.97
2019-04-22T22:51:15.588Z,6.53
2019-04-22T22:53:52.712Z,6.37
2019-04-22T22:56:25.406Z,7.07
2019-04-22T22:58:52.494Z,6.63
2019-04-22T23:01:34.945Z,7.13
2019-04-22T23:04:04.003Z,7.10
2019-04-22T23:06:40.647Z,6.43
2019-04-22T23:09:09.828Z,6.37
2019-04-22T23:11:57.490Z,6.67
2019-04-22T23:14:14.481Z,7.67
2019-04-22T23:16:39.841Z,6.30
2019-04-22T23:19:02.810Z,6.93
2019-04-22T23:21:41.721Z,6.73
2019-04-22T23:24:44.028Z,6.97
2019-04-22T23:27:22.831Z,7.13
2019-04-22T23:30:29.210Z,7.40
2019-04-22T23:33:26.468Z,6.80
2019-04-22T23:35:57.541Z,7.20
2019-04-22T23:38:44.299Z,7.00
2019-04-22T23:41:39.212Z,7.30
2019-04-22T23:44:10.026Z,6.83
2019-04-22T23:46:41.597Z,7.10
2019-04-22T23:49:11.910Z,6.93
2019-04-22T23:52:02.892Z,7.63
2019-04-22T23:54:31.557Z,6.70
2019-04-22T23:56:55.964Z,7.20
